Latest Weather Observations for St George

IDQ60801

Issued at 11:43 pm EST Wednesday 25 May 2022 (issued every 10 minutes, with the page automatically refreshed every 10 minutes)

About weather observations | Map of weather stations | Latest weather observations for QLD | Other Formats
Station Details ID: 043109 Name: ST GEORGE AIRPORT Lat: -28.05 Lon: 148.60 Height: 198.5 m
Data from the previous 72 hours. | See also: Recent months at St George
Date/Time
EST
Temp
°C
App
Temp
°C
Dew
Point
°C
Rel
Hum
%
Delta-T
°C
Wind Press
QNH
hPa
Press
MSL
hPa
Rain since
9am
mm
Dir  Spd
km/h
Gust
km/h
Spd
kts
Gust
kts
25/11:30pm 16.2 16.0 12.9 81 1.8 ENE 6 9 3 5 1018.0 1017.7 0.0
25/11:00pm 16.1 15.7 13.0 82 1.7 E 7 11 4 6 1018.1 1017.8 0.0
25/10:30pm 16.2 15.5 13.1 82 1.7 E 9 13 5 7 1018.3 1018.0 0.0
25/10:00pm 16.2 15.9 13.3 83 1.6 ESE 7 9 4 5 1018.6 1018.3 0.0
25/09:30pm 17.1 16.0 13.0 77 2.3 E 11 15 6 8 1018.7 1018.4 0.0
25/09:00pm 17.3 16.7 13.4 78 2.2 E 9 13 5 7 1018.7 1018.4 0.0
25/08:30pm 17.5 17.2 13.4 77 2.3 E 7 9 4 5 1018.8 1018.5 0.0
25/08:00pm 17.8 17.1 13.3 75 2.6 E 9 13 5 7 1018.7 1018.4 0.0
25/07:30pm 18.0 17.3 13.3 74 2.7 ENE 9 13 5 7 1018.6 1018.3 0.0
25/07:00pm 18.1 17.4 13.2 73 2.8 E 9 11 5 6 1018.4 1018.1 0.0
25/06:30pm 18.3 17.7 13.6 74 2.7 ENE 9 15 5 8 1018.2 1017.9 0.0
25/06:00pm 18.5 17.5 13.4 72 2.9 E 11 15 6 8 1017.8 1017.5 0.0
25/05:30pm 18.8 18.1 13.2 70 3.2 E 9 11 5 6 1017.7 1017.4 0.0
25/05:00pm 19.3 18.8 12.8 66 3.7 E 7 9 4 5 1017.5 1017.2 0.0
25/04:30pm 19.7 19.6 13.4 67 3.6 NE 6 7 3 4 1017.5 1017.2 0.0
25/04:00pm 20.0 19.4 12.3 61 4.3 NE 7 9 4 5 1017.4 1017.1 0.0
25/03:30pm 20.2 19.8 12.4 61 4.4 NNE 6 9 3 5 1017.4 1017.1 0.0
25/03:00pm 20.3 19.8 12.5 61 4.4 NNE 7 11 4 6 1017.5 1017.2 0.0
25/02:30pm 20.3 19.0 12.5 61 4.4 N 11 15 6 8 1017.6 1017.3 0.0
25/02:00pm 20.5 19.5 12.2 59 4.7 N 9 15 5 8 1017.8 1017.5 0.0
25/01:30pm 20.9 19.5 12.3 58 4.9 NNE 11 17 6 9 1018.0 1017.7 0.0
25/01:00pm 20.7 19.8 12.7 60 4.6 NNE 9 13 5 7 1018.5 1018.2 0.0
25/12:30pm 20.0 18.1 11.8 59 4.6 ENE 13 17 7 9 1018.9 1018.6 0.0
25/12:00pm 20.9 19.1 13.4 62 4.3 NE 15 24 8 13 1019.3 1019.0 0.0
25/11:30am 19.8 17.4 12.8 64 4.0 NE 17 24 9 13 1019.8 1019.5 0.0
25/11:00am 18.9 16.6 12.9 68 3.4 ENE 17 24 9 13 1020.4 1020.1 0.0
25/10:30am 18.2 15.3 12.2 68 3.4 ENE 19 24 10 13 1020.8 1020.6 0.0
25/10:00am 17.1 15.4 12.6 75 2.5 ENE 13 19 7 10 1021.5 1021.2 0.0
25/09:30am 16.3 14.1 12.1 76 2.3 ENE 15 24 8 13 1021.5 1021.2 0.0
25/09:00am 15.5 14.1 12.3 81 1.8 ENE 11 19 6 10 1021.7 1021.4 0.0
25/08:30am 15.0 13.9 12.1 83 1.6 NE 9 13 5 7 1021.9 1021.6 0.0
25/08:00am 14.4 15.2 12.6 89 1.0 CALM 0 0 0 0 1021.5 1021.2 0.0
25/07:30am 13.8 14.0 11.8 88 1.1 E 2 7 1 4 1021.1 1020.9 0.0
25/07:00am 13.8 13.2 11.8 88 1.1 E 6 7 3 4 1020.8 1020.6 0.0
25/06:30am 14.0 13.3 11.9 87 1.1 ENE 7 9 4 5 1020.6 1020.4 0.0
25/06:00am 14.1 13.4 12.1 88 1.1 ENE 7 9 4 5 1020.3 1020.0 0.0
25/05:30am 14.0 13.5 12.2 89 1.0 E 6 7 3 4 1020.3 1020.0 0.0
25/05:00am 13.6 12.8 11.7 88 1.0 E 7 7 4 4 1020.2 1019.9 0.0
25/04:30am 14.1 14.7 11.8 86 1.2 CALM 0 0 0 0 1020.1 1019.8 0.0
25/04:00am 14.4 13.7 12.1 86 1.3 E 7 9 4 5 1020.3 1020.0 0.0
25/03:30am 14.4 13.4 12.3 87 1.2 ENE 9 11 5 6 1020.1 1019.8 0.0
25/03:00am 14.2 13.6 12.2 88 1.1 ENE 7 9 4 5 1020.1 1019.8 0.0
25/02:30am 14.6 13.6 12.3 86 1.3 ENE 9 11 5 6 1020.3 1020.0 0.0
25/02:00am 14.9 13.6 12.4 85 1.4 E 11 13 6 7 1020.3 1020.0 0.0
25/01:30am 15.0 13.7 12.5 85 1.4 E 11 15 6 8 1020.5 1020.3 0.0
25/01:00am 15.6 14.4 12.7 83 1.6 E 11 15 6 8 1021.0 1020.8 0.0
25/12:30am 16.1 14.5 12.7 80 1.9 E 13 19 7 10 1021.0 1020.8 0.0
25/12:00am 16.5 14.5 12.8 79 2.1 E 15 19 8 10 1021.2 1021.0 0.0
 
Date/Time
EST
Temp
°C
App
Temp
°C
Dew
Point
°C
Rel
Hum
%
Delta-T
°C
Wind Press
QNH
hPa
Press
MSL
hPa
Rain since
9am
mm
Dir  Spd
km/h
Gust
km/h
Spd
kts
Gust
kts
24/11:30pm 16.6 14.6 12.8 78 2.1 E 15 20 8 11 1021.1 1020.9 0.0
24/11:00pm 16.5 15.0 13.0 80 2.0 ESE 13 17 7 9 1021.5 1021.2 0.0
24/10:30pm 16.1 15.6 12.8 81 1.8 ESE 7 9 4 5 1021.8 1021.5 0.0
24/10:00pm 16.7 15.9 13.0 79 2.1 ESE 9 13 5 7 1021.7 1021.4 0.0
24/09:30pm 17.0 16.0 13.3 79 2.1 ESE 11 15 6 8 1021.8 1021.5 0.0
24/09:00pm 17.0 16.3 13.3 79 2.1 ESE 9 13 5 7 1021.8 1021.5 0.0
24/08:30pm 16.9 15.8 13.0 78 2.2 ESE 11 13 6 7 1021.6 1021.3 0.0
24/08:00pm 17.2 16.5 13.1 77 2.3 ESE 9 13 5 7 1021.5 1021.2 0.0
24/07:30pm 16.9 15.8 13.0 78 2.2 ESE 11 13 6 7 1021.3 1021.1 0.0
24/07:00pm 16.8 15.9 12.7 77 2.3 SE 9 11 5 6 1021.1 1020.9 0.0
24/06:30pm 17.4 16.6 12.9 75 2.5 ESE 9 11 5 6 1020.7 1020.5 0.0
24/06:00pm 17.9 17.2 13.2 74 2.7 SE 9 11 5 6 1020.4 1020.1 0.0
24/05:30pm 18.7 17.6 13.1 70 3.2 ESE 11 15 6 8 1020.2 1019.9 0.0
24/05:00pm 19.8 17.3 12.3 62 4.2 ESE 17 26 9 14 1019.8 1019.5 0.0
24/04:30pm 20.7 18.5 12.1 58 4.9 ESE 15 20 8 11 1019.6 1019.3 0.0
24/04:00pm 20.8 18.6 12.2 58 4.9 ESE 15 20 8 11 1019.6 1019.3 0.0
24/03:30pm 21.0 18.9 12.4 58 4.9 ESE 15 20 8 11 1019.5 1019.2 0.0
24/03:00pm 20.3 17.6 11.8 58 4.8 E 17 24 9 13 1019.6 1019.3 0.0
24/02:30pm 20.8 17.6 11.4 55 5.2 ESE 19 28 10 15 1019.7 1019.4 0.0
24/02:00pm 20.9 18.5 12.8 60 4.6 ESE 17 22 9 12 1019.9 1019.6 0.0
24/01:30pm 20.5 17.4 12.2 59 4.7 ESE 20 28 11 15 1020.4 1020.1 0.0
24/01:00pm 21.1 18.7 12.5 58 4.9 E 17 28 9 15 1020.7 1020.5 0.0
24/12:30pm 20.6 18.2 12.8 61 4.5 E 17 24 9 13 1021.1 1020.9 0.0
24/12:00pm 20.7 18.0 13.4 63 4.2 E 20 30 11 16 1021.9 1021.6 0.0
24/11:30am 19.2 15.6 11.7 62 4.2 E 22 30 12 16 1022.3 1022.0 0.0
24/11:00am 19.6 16.7 12.8 65 3.9 E 20 30 11 16 1022.9 1022.6 0.0
24/10:30am 19.2 16.8 12.7 66 3.7 ESE 17 22 9 12 1023.3 1023.0 0.0
24/10:00am 17.6 14.7 12.3 71 2.9 ESE 19 26 10 14 1023.5 1023.2 0.0
24/09:30am 17.6 14.5 12.3 71 3.0 ESE 20 30 11 16 1023.5 1023.2 0.0
24/09:00am 16.1 14.1 12.8 81 1.8 ESE 15 22 8 12 1023.5 1023.2 0.2
24/08:30am 15.2 13.0 12.2 82 1.6 ESE 15 20 8 11 1023.1 1022.8 0.2
24/08:00am 14.7 13.4 12.4 86 1.3 ESE 11 17 6 9 1022.9 1022.6 0.2
24/07:30am 14.2 12.5 12.4 89 1.0 ESE 13 19 7 10 1022.6 1022.3 0.2
24/07:00am 13.7 11.9 12.1 90 0.9 ESE 13 17 7 9 1022.3 1022.0 0.2
24/06:30am 13.6 11.8 12.2 91 0.8 ESE 13 19 7 10 1022.3 1022.0 0.2
24/06:00am 13.6 12.5 12.0 90 0.9 ESE 9 13 5 7 1022.4 1022.1 0.2
24/05:30am 13.9 12.2 12.6 92 0.7 ESE 13 15 7 8 1022.1 1021.8 0.2
24/05:00am 13.4 12.4 12.3 93 0.6 SE 9 9 5 5 1021.9 1021.6 0.2
24/04:30am 12.8 11.6 11.7 93 0.6 SE 9 11 5 6 1021.8 1021.5 0.2
24/04:00am 13.1 12.0 11.8 92 0.7 SE 9 11 5 6 1021.7 1021.4 0.2
24/03:30am 13.5 12.2 12.4 93 0.6 SE 11 13 6 7 1021.8 1021.5 0.2
24/03:21am 13.7 12.4 12.6 93 0.6 SE 11 13 6 7 1021.9 1021.6 0.2
24/03:00am 13.9 12.6 12.6 92 0.7 SE 11 13 6 7 1022.0 1021.7 0.2
24/02:30am 14.0 13.1 12.7 92 0.7 SE 9 13 5 7 1022.3 1022.0 0.2
24/02:24am 13.9 12.6 12.6 92 0.7 SE 11 15 6 8 1022.3 1022.0 0.2
24/02:00am 14.1 12.9 12.8 92 0.7 SE 11 15 6 8 1022.4 1022.1 0.2
24/01:30am 14.3 13.1 12.9 91 0.8 SE 11 15 6 8 1022.9 1022.6 0.2
24/01:00am 14.3 13.4 12.7 90 0.9 SSE 9 13 5 7 1023.0 1022.7 0.2
24/12:30am 14.7 13.6 13.1 90 0.9 SE 11 15 6 8 1023.2 1022.9 0.2
24/12:00am 14.6 13.1 13.1 91 0.8 SE 13 20 7 11 1023.4 1023.1 0.2
 
Date/Time
EST
Temp
°C
App
Temp
°C
Dew
Point
°C
Rel
Hum
%
Delta-T
°C
Wind Press
QNH
hPa
Press
MSL
hPa
Rain since
9am
mm
Dir  Spd
km/h
Gust
km/h
Spd
kts
Gust
kts
23/11:30pm 14.8 12.9 13.0 89 1.0 ESE 15 20 8 11 1023.7 1023.4 0.2
23/11:00pm 15.0 13.5 13.0 88 1.1 ESE 13 20 7 11 1023.8 1023.5 0.2
23/10:30pm 14.9 13.7 12.9 88 1.1 SE 11 13 6 7 1023.7 1023.4 0.2
23/10:00pm 14.7 13.5 12.7 88 1.1 SE 11 13 6 7 1023.7 1023.4 0.2
23/09:30pm 14.8 13.1 12.5 86 1.3 ESE 13 17 7 9 1023.4 1023.1 0.2
23/09:00pm 15.0 12.6 12.7 86 1.3 SE 17 20 9 11 1023.2 1022.9 0.2
23/08:30pm 14.9 13.6 12.4 85 1.4 SE 11 15 6 8 1023.3 1023.0 0.2
23/08:00pm 14.9 13.1 12.2 84 1.5 SE 13 17 7 9 1022.9 1022.6 0.2
23/07:30pm 15.3 13.1 12.2 82 1.7 SE 15 17 8 9 1022.7 1022.4 0.2
23/07:00pm 15.6 13.9 12.4 81 1.8 SSE 13 15 7 8 1022.4 1022.1 0.2
23/06:30pm 15.6 14.2 12.2 80 1.9 SE 11 15 6 8 1022.2 1021.9 0.2
23/06:00pm 15.8 14.0 12.0 78 2.1 SE 13 15 7 8 1022.0 1021.7 0.2
23/05:30pm 16.5 14.2 11.9 74 2.5 SE 15 19 8 10 1021.9 1021.6 0.2
23/05:00pm 17.4 14.3 11.7 69 3.1 SE 19 24 10 13 1021.7 1021.4 0.2
23/04:30pm 18.1 16.3 12.1 68 3.3 SE 13 19 7 10 1021.5 1021.2 0.2
23/04:00pm 18.4 16.8 11.7 65 3.7 ESE 11 15 6 8 1021.5 1021.2 0.2
23/03:30pm 18.6 17.1 11.9 65 3.7 ESE 11 20 6 11 1021.3 1021.1 0.2
23/03:00pm 17.5 16.3 12.8 74 2.6 ESE 11 15 6 8 1021.5 1021.2 0.0
23/02:30pm 17.5 15.0 12.4 72 2.8 ESE 17 24 9 13 1021.6 1021.3 0.0
23/02:00pm 18.3 15.6 11.6 65 3.7 ESE 17 24 9 13 1021.6 1021.3 0.0
23/01:30pm 18.8 16.3 12.3 66 3.6 E 17 20 9 11 1021.6 1021.3 0.0
23/01:00pm 18.3 15.7 12.1 67 3.4 ESE 17 22 9 12 1021.9 1021.6 0.0
23/12:30pm 18.1 15.7 12.5 70 3.1 E 17 22 9 12 1022.3 1022.0 0.0
23/12:00pm 17.2 14.8 12.7 75 2.5 ESE 17 26 9 14 1022.7 1022.4 0.0
23/11:30am 16.7 14.7 12.8 78 2.2 ESE 15 20 8 11 1023.1 1022.8 0.0
23/11:00am 16.0 14.3 12.6 80 1.9 ESE 13 19 7 10 1023.5 1023.2 0.0
23/10:30am 15.8 13.7 12.4 80 1.9 ESE 15 20 8 11 1023.7 1023.4 0.0
23/10:00am 14.9 13.5 12.2 84 1.5 SE 11 15 6 8 1023.8 1023.5 0.0
23/09:30am 14.8 13.0 12.1 84 1.5 ESE 13 17 7 9 1023.8 1023.5 0.0
23/09:00am 14.4 13.3 11.9 85 1.4 ESE 9 13 5 7 1023.7 1023.4 3.2
23/08:30am 14.3 12.4 11.8 85 1.4 ESE 13 19 7 10 1023.3 1023.0 3.2
23/08:00am 14.2 12.3 11.7 85 1.3 ESE 13 15 7 8 1022.9 1022.6 3.2
23/07:30am 14.0 12.5 11.9 87 1.1 ESE 11 17 6 9 1022.7 1022.4 3.2
23/07:00am 13.9 11.6 11.9 88 1.1 SE 15 17 8 9 1022.2 1021.9 3.2
23/06:30am 13.8 12.3 12.0 89 1.0 ESE 11 17 6 9 1021.9 1021.6 3.2
23/06:00am 13.8 12.7 12.0 89 1.0 SE 9 13 5 7 1021.6 1021.3 3.2
23/05:30am 13.6 12.7 11.3 86 1.2 SE 7 9 4 5 1021.5 1021.2 3.2
23/05:00am 13.7 12.9 11.2 85 1.3 ESE 6 9 3 5 1021.1 1020.9 3.2
23/04:30am 13.7 12.8 11.2 85 1.3 ESE 7 9 4 5 1021.1 1020.9 3.2
23/04:00am 13.8 12.5 11.3 85 1.3 ESE 9 11 5 6 1021.2 1021.0 3.2
23/03:30am 13.7 12.5 11.6 87 1.1 ESE 9 13 5 7 1021.1 1020.9 3.2
23/03:00am 13.6 12.0 11.5 87 1.1 ESE 11 13 6 7 1021.1 1020.9 3.2
23/02:30am 13.9 12.3 11.6 86 1.2 ESE 11 13 6 7 1021.1 1020.9 3.2
23/02:00am 14.0 12.9 12.0 88 1.1 ESE 9 13 5 7 1021.3 1021.1 3.2
23/01:30am 14.1 13.0 12.1 88 1.1 ESE 9 13 5 7 1021.3 1021.1 3.2
23/01:00am 14.1 13.4 12.0 87 1.1 ESE 7 9 4 5 1021.5 1021.2 3.2
23/12:30am 14.1 13.0 12.0 87 1.1 ESE 9 13 5 7 1021.3 1021.1 3.2
23/12:00am 14.2 12.6 11.7 85 1.3 ESE 11 13 6 7 1021.6 1021.3 3.2

Other formats

Comma delimited format used in spreadsheet applications
http://www.bom.gov.au/fwo/IDQ60801/IDQ60801.94517.axf

JavaScript Object Notation format (JSON) in row-major order
http://www.bom.gov.au/fwo/IDQ60801/IDQ60801.94517.json

Data quality

Most of these data are generated automatically and are frequently updated. Quality checks on data are not normally performed. It is possible for incorrect values to appear. Refer to information at About Latest Weather Observations and please check the disclaimer before using these data.